createdAt,value
2023-02-06T00:00:42.177Z,14.80
2023-02-06T00:03:09.475Z,15.20
2023-02-06T00:05:36.618Z,14.93
2023-02-06T00:08:04.258Z,14.75
2023-02-06T00:10:30.976Z,15.55
2023-02-06T00:12:57.573Z,14.85
2023-02-06T00:15:24.245Z,13.80
2023-02-06T00:17:50.883Z,15.15
2023-02-06T00:20:17.725Z,15.20
2023-02-06T00:22:44.834Z,14.50
2023-02-06T00:25:11.547Z,14.52
2023-02-06T00:27:38.176Z,14.98
2023-02-06T00:30:05.372Z,14.93
2023-02-06T00:32:32.022Z,15.18
2023-02-06T00:34:58.700Z,14.05
2023-02-06T00:37:25.349Z,14.55
2023-02-06T00:39:51.932Z,13.40
2023-02-06T00:42:18.641Z,15.50
2023-02-06T00:44:45.234Z,15.27
2023-02-06T00:47:11.847Z,16.00
2023-02-06T00:49:38.516Z,13.45
2023-02-06T00:52:05.163Z,14.65
2023-02-06T00:54:31.854Z,30.30
2023-02-06T00:56:58.554Z,21.90
2023-02-06T00:59:25.199Z,30.17
2023-02-06T01:01:52.071Z,18.88
2023-02-06T01:04:18.813Z,14.25
2023-02-06T01:06:45.493Z,15.57
2023-02-06T01:09:12.111Z,16.80
2023-02-06T01:11:39.812Z,16.95
2023-02-06T01:14:06.519Z,15.50
2023-02-06T01:16:33.203Z,15.40
2023-02-06T01:18:59.823Z,19.90
2023-02-06T01:21:26.600Z,21.65
2023-02-06T01:23:54.920Z,14.90
2023-02-06T01:26:24.581Z,15.23
2023-02-06T01:28:51.561Z,16.67
2023-02-06T01:31:18.234Z,16.10
2023-02-06T01:33:46.319Z,13.95
2023-02-06T01:36:14.095Z,12.98
2023-02-06T01:38:41.200Z,15.05
2023-02-06T01:41:09.214Z,13.77
2023-02-06T01:43:38.841Z,13.10
2023-02-06T01:46:06.287Z,13.88
2023-02-06T01:48:42.639Z,14.63
2023-02-06T01:51:14.390Z,13.40
2023-02-06T01:53:44.542Z,13.10
2023-02-06T01:56:11.933Z,14.55
2023-02-06T01:58:42.535Z,14.45
2023-02-06T02:01:10.216Z,11.98
2023-02-06T02:03:40.175Z,13.07
2023-02-06T02:06:10.964Z,13.48
2023-02-06T02:08:40.704Z,12.25
2023-02-06T02:11:09.651Z,10.90
2023-02-06T02:13:38.471Z,11.23
2023-02-06T02:16:25.536Z,12.27
2023-02-06T02:19:04.326Z,12.27
2023-02-06T02:22:04.631Z,10.07
2023-02-06T02:25:12.905Z,10.25
2023-02-06T02:28:22.188Z,11.23
2023-02-06T02:31:10.869Z,11.70
2023-02-06T02:34:06.417Z,9.98
2023-02-06T02:36:51.534Z,10.05
2023-02-06T02:39:39.621Z,11.13
2023-02-06T02:42:20.652Z,10.13
2023-02-06T02:44:56.696Z,12.18
2023-02-06T02:47:30.446Z,11.15
2023-02-06T02:50:01.080Z,11.57
2023-02-06T02:52:28.953Z,10.65
2023-02-06T02:54:55.581Z,14.65
2023-02-06T02:57:28.977Z,12.32
2023-02-06T03:00:00.054Z,12.00
2023-02-06T03:02:33.918Z,11.45
2023-02-06T03:05:05.913Z,12.50
2023-02-06T03:08:00.139Z,10.60
2023-02-06T03:10:53.575Z,10.55
2023-02-06T03:13:48.959Z,10.10
2023-02-06T03:16:26.590Z,11.48
2023-02-06T03:19:01.542Z,11.57
2023-02-06T03:21:29.857Z,9.85
2023-02-06T03:23:59.618Z,10.50
2023-02-06T03:26:28.921Z,9.75
2023-02-06T03:29:02.960Z,9.80
2023-02-06T03:31:40.030Z,10.88
2023-02-06T03:34:35.152Z,9.57
2023-02-06T03:37:02.005Z,10.18
2023-02-06T03:39:28.753Z,9.75
2023-02-06T03:41:59.780Z,10.43
2023-02-06T03:44:30.227Z,11.65
2023-02-06T03:46:59.614Z,11.15
2023-02-06T03:49:29.940Z,13.50
2023-02-06T03:52:29.065Z,11.48
2023-02-06T03:55:04.958Z,14.05
2023-02-06T03:57:34.032Z,11.55
2023-02-06T04:00:00.697Z,14.77
2023-02-06T04:02:28.939Z,14.43
2023-02-06T04:04:58.292Z,12.07
2023-02-06T04:07:27.883Z,13.13
2023-02-06T04:09:54.691Z,12.63
2023-02-06T04:12:22.566Z,12.23
2023-02-06T04:14:49.626Z,13.10
2023-02-06T04:17:28.170Z,13.57
2023-02-06T04:20:05.081Z,10.70
2023-02-06T04:22:31.825Z,11.00
2023-02-06T04:24:58.413Z,13.05
2023-02-06T04:27:25.164Z,11.68
2023-02-06T04:29:51.765Z,10.05
2023-02-06T04:32:18.439Z,11.02
2023-02-06T04:34:45.072Z,10.57
2023-02-06T04:37:12.600Z,10.70
2023-02-06T04:39:39.326Z,12.40
2023-02-06T04:42:06.817Z,10.52
2023-02-06T04:44:33.863Z,10.93
2023-02-06T04:47:01.683Z,9.48
2023-02-06T04:49:28.378Z,10.02
2023-02-06T04:51:55.016Z,10.13
2023-02-06T04:54:21.675Z,10.88
2023-02-06T04:56:49.203Z,11.82
2023-02-06T04:59:16.152Z,10.90
2023-02-06T05:01:42.903Z,11.77
2023-02-06T05:04:09.721Z,13.10
2023-02-06T05:06:36.580Z,12.07
2023-02-06T05:09:04.598Z,12.90
2023-02-06T05:11:31.490Z,14.60
2023-02-06T05:13:58.214Z,13.70
2023-02-06T05:16:24.929Z,14.57
2023-02-06T05:18:56.831Z,13.73
2023-02-06T05:21:24.929Z,10.77
2023-02-06T05:23:51.832Z,13.07
2023-02-06T05:26:19.336Z,13.10
2023-02-06T05:28:46.062Z,12.32
2023-02-06T05:31:19.738Z,12.20
2023-02-06T05:33:52.520Z,12.40
2023-02-06T05:36:20.114Z,12.30
2023-02-06T05:38:47.680Z,13.82
2023-02-06T05:41:15.023Z,12.10
2023-02-06T05:43:41.722Z,11.13
2023-02-06T05:46:08.736Z,11.15
2023-02-06T05:48:35.633Z,10.32
2023-02-06T05:51:02.439Z,9.68
2023-02-06T05:53:29.118Z,10.75
2023-02-06T05:55:56.021Z,11.20
2023-02-06T05:58:22.764Z,9.68
2023-02-06T06:00:49.544Z,11.50
2023-02-06T06:03:16.250Z,9.82
2023-02-06T06:05:42.893Z,10.60
2023-02-06T06:08:09.560Z,9.23
2023-02-06T06:10:36.255Z,8.50
2023-02-06T06:13:03.955Z,9.32
2023-02-06T06:15:30.645Z,9.32
2023-02-06T06:17:57.335Z,8.60
2023-02-06T06:20:24.092Z,8.13
2023-02-06T06:22:50.757Z,8.38
2023-02-06T06:25:17.539Z,7.25
2023-02-06T06:27:44.932Z,8.60
2023-02-06T06:30:12.319Z,8.75
2023-02-06T06:32:38.982Z,8.25
2023-02-06T06:35:06.115Z,8.80
2023-02-06T06:37:32.756Z,8.75
2023-02-06T06:39:59.395Z,9.07
2023-02-06T06:42:26.210Z,8.20
2023-02-06T06:44:52.831Z,7.88
2023-02-06T06:47:19.427Z,9.82
2023-02-06T06:49:46.089Z,7.45
2023-02-06T06:52:23.959Z,5.95
2023-02-06T06:54:52.529Z,5.30
2023-02-06T06:57:19.972Z,3.17
2023-02-06T06:59:46.718Z,3.38
2023-02-06T07:02:13.765Z,2.60
2023-02-06T07:04:43.369Z,3.25
2023-02-06T07:07:10.086Z,3.72
2023-02-06T07:09:36.793Z,3.15
2023-02-06T07:12:03.614Z,3.17
2023-02-06T07:14:30.197Z,3.05
2023-02-06T07:16:57.065Z,3.38
2023-02-06T07:19:23.730Z,3.63
2023-02-06T07:21:50.333Z,2.90
2023-02-06T07:24:16.976Z,2.88
2023-02-06T07:26:43.624Z,2.67
2023-02-06T07:29:10.442Z,3.03
2023-02-06T07:31:37.141Z,3.20
2023-02-06T07:34:04.188Z,4.05
2023-02-06T07:36:30.841Z,3.28
2023-02-06T07:38:57.512Z,3.30
2023-02-06T07:41:24.332Z,3.58
2023-02-06T07:43:54.257Z,2.83
2023-02-06T07:46:21.053Z,2.35
2023-02-06T07:48:47.857Z,2.47
2023-02-06T07:51:14.451Z,2.22
2023-02-06T07:53:41.125Z,2.55
2023-02-06T07:56:16.957Z,2.50
2023-02-06T07:58:44.376Z,1.80
2023-02-06T08:01:11.185Z,2.58
2023-02-06T08:03:37.875Z,3.17
2023-02-06T08:06:12.822Z,4.85
2023-02-06T08:08:39.442Z,2.50
2023-02-06T08:11:08.187Z,2.30
2023-02-06T08:13:35.288Z,2.08
2023-02-06T08:16:06.928Z,2.65
2023-02-06T08:18:33.909Z,2.15
2023-02-06T08:21:07.239Z,5.40
2023-02-06T08:23:36.785Z,5.35
2023-02-06T08:26:15.902Z,11.30
2023-02-06T08:28:44.100Z,7.45
2023-02-06T08:31:12.003Z,7.78
2023-02-06T08:33:38.790Z,9.32
2023-02-06T08:36:06.191Z,10.40
2023-02-06T08:38:32.968Z,11.80
2023-02-06T08:40:59.687Z,13.57
2023-02-06T08:43:26.399Z,7.70
2023-02-06T08:45:56.297Z,18.60
2023-02-06T08:48:23.413Z,14.38
2023-02-06T08:50:50.073Z,13.60
2023-02-06T08:53:16.803Z,11.00
2023-02-06T08:55:43.581Z,7.50
2023-02-06T08:58:10.223Z,6.55
2023-02-06T09:00:36.897Z,8.35
2023-02-06T09:03:05.574Z,7.75
2023-02-06T09:05:32.709Z,5.47
2023-02-06T09:08:00.921Z,5.05
2023-02-06T09:10:28.413Z,4.07
2023-02-06T09:12:55.260Z,3.20
2023-02-06T09:15:22.255Z,3.05
2023-02-06T09:17:49.415Z,3.10
2023-02-06T09:20:16.377Z,3.67
2023-02-06T09:22:44.657Z,3.80
2023-02-06T09:25:12.404Z,3.75
2023-02-06T09:27:39.125Z,4.35
2023-02-06T09:30:06.182Z,6.65
2023-02-06T09:32:32.885Z,4.75
2023-02-06T09:34:59.592Z,6.05
2023-02-06T09:37:26.301Z,2.40
2023-02-06T09:39:52.905Z,3.13
2023-02-06T09:42:33.869Z,2.45
2023-02-06T09:45:16.906Z,1.90
2023-02-06T09:47:48.469Z,2.08
2023-02-06T09:50:21.304Z,1.30
2023-02-06T09:52:58.021Z,2.35
2023-02-06T09:55:29.765Z,2.90
2023-02-06T09:58:22.890Z,2.00
2023-02-06T10:00:55.780Z,1.58
2023-02-06T10:03:37.804Z,1.77
2023-02-06T10:06:35.876Z,1.58
2023-02-06T10:09:10.213Z,1.77
2023-02-06T10:11:52.507Z,2.17
2023-02-06T10:14:30.054Z,2.10
2023-02-06T10:17:01.701Z,1.95
2023-02-06T10:19:44.121Z,1.83
2023-02-06T10:25:21.076Z,2.00
2023-02-06T10:27:53.483Z,2.30
2023-02-06T10:30:29.749Z,1.70
2023-02-06T10:33:24.884Z,3.45
2023-02-06T10:36:05.387Z,3.33
2023-02-06T10:38:43.386Z,3.13
2023-02-06T10:41:34.223Z,1.70
2023-02-06T10:44:14.232Z,3.58
2023-02-06T10:46:48.309Z,6.40
2023-02-06T10:49:23.784Z,3.63
2023-02-06T10:51:58.704Z,2.88
2023-02-06T10:54:31.759Z,3.45
2023-02-06T10:56:59.671Z,3.65
2023-02-06T10:59:32.400Z,3.75
2023-02-06T11:02:04.228Z,3.40
2023-02-06T11:04:38.736Z,6.05
2023-02-06T11:07:15.165Z,5.03
2023-02-06T11:09:42.009Z,3.17
2023-02-06T11:12:23.917Z,2.20
2023-02-06T11:14:54.624Z,1.90
2023-02-06T11:17:23.353Z,3.72
2023-02-06T11:19:53.162Z,1.80
2023-02-06T11:22:34.880Z,1.00
2023-02-06T11:25:18.400Z,2.67
2023-02-06T11:27:45.460Z,1.08
2023-02-06T11:30:32.027Z,1.23
2023-02-06T11:33:06.473Z,2.35
2023-02-06T11:35:51.379Z,0.77
2023-02-06T11:38:24.216Z,1.30
2023-02-06T11:41:05.957Z,1.30
2023-02-06T11:43:41.863Z,1.65
2023-02-06T11:46:11.411Z,1.13
2023-02-06T11:48:48.681Z,1.75
2023-02-06T11:51:16.905Z,1.77
2023-02-06T11:54:02.441Z,2.28
2023-02-06T11:56:31.630Z,1.42
2023-02-06T11:59:17.869Z,1.55
2023-02-06T12:01:46.761Z,1.30
2023-02-06T12:04:28.340Z,1.25
2023-02-06T12:07:01.122Z,1.10
2023-02-06T12:09:28.480Z,1.20
2023-02-06T12:12:30.673Z,0.63
2023-02-06T12:15:18.231Z,1.67
2023-02-06T12:18:06.058Z,0.88
2023-02-06T12:20:35.475Z,1.15
2023-02-06T12:23:27.848Z,0.73
2023-02-06T12:25:59.526Z,1.35
2023-02-06T12:28:49.332Z,0.95
2023-02-06T12:31:25.932Z,1.27
2023-02-06T12:34:00.636Z,1.25
2023-02-06T12:36:51.439Z,0.90
2023-02-06T12:39:21.365Z,1.45
2023-02-06T12:42:14.339Z,1.20
2023-02-06T12:44:50.212Z,1.13
2023-02-06T12:47:24.478Z,1.50
2023-02-06T12:50:00.238Z,1.42
2023-02-06T12:52:31.195Z,1.13
2023-02-06T12:55:30.723Z,1.48
2023-02-06T12:57:58.254Z,1.40
2023-02-06T13:00:40.356Z,0.82
2023-02-06T13:03:21.141Z,1.23
2023-02-06T13:06:15.916Z,1.02
2023-02-06T13:08:56.179Z,1.25
2023-02-06T13:11:28.891Z,0.88
2023-02-06T13:14:20.375Z,1.02
2023-02-06T13:17:07.931Z,1.15
2023-02-06T13:19:37.455Z,1.10
2023-02-06T13:22:10.502Z,1.00
2023-02-06T13:24:39.651Z,1.20
2023-02-06T13:27:09.261Z,0.73
2023-02-06T13:29:48.865Z,0.70
2023-02-06T13:32:19.276Z,1.35
2023-02-06T13:34:49.149Z,1.10
2023-02-06T13:37:26.540Z,1.33
2023-02-06T13:40:21.605Z,1.05
2023-02-06T13:43:15.890Z,1.30
2023-02-06T13:46:02.526Z,1.05
2023-02-06T13:48:41.134Z,1.92
2023-02-06T13:51:32.961Z,1.20
2023-02-06T13:54:15.120Z,1.30
2023-02-06T13:57:04.896Z,1.27
2023-02-06T13:59:36.804Z,1.83
2023-02-06T14:02:40.918Z,1.52
2023-02-06T14:05:14.495Z,1.33
2023-02-06T14:07:44.140Z,1.70
2023-02-06T14:10:35.472Z,2.15
2023-02-06T14:13:02.122Z,1.60
2023-02-06T14:15:37.749Z,2.20
2023-02-06T14:18:27.052Z,2.85
2023-02-06T14:21:05.053Z,1.42
2023-02-06T14:24:08.696Z,2.75
2023-02-06T14:26:41.342Z,1.80
2023-02-06T14:29:20.325Z,1.75
2023-02-06T14:31:53.265Z,1.70
2023-02-06T14:34:23.659Z,1.88
2023-02-06T14:37:05.639Z,1.33
2023-02-06T14:39:39.470Z,2.55
2023-02-06T14:42:19.963Z,3.83
2023-02-06T14:44:59.022Z,1.83
2023-02-06T14:47:34.568Z,1.98
2023-02-06T14:50:01.879Z,2.05
2023-02-06T14:52:33.323Z,2.00
2023-02-06T14:55:00.602Z,2.33
2023-02-06T14:57:32.587Z,2.53
2023-02-06T15:00:19.913Z,2.65
2023-02-06T15:02:46.812Z,1.77
2023-02-06T15:05:25.115Z,2.22
2023-02-06T15:08:00.243Z,2.78
2023-02-06T15:10:30.499Z,1.98
2023-02-06T15:12:57.340Z,1.67
2023-02-06T15:15:27.305Z,1.73
2023-02-06T15:18:07.817Z,1.73
2023-02-06T15:20:40.393Z,1.38
2023-02-06T15:23:23.709Z,1.58
2023-02-06T15:26:02.547Z,1.80
2023-02-06T15:28:31.526Z,1.92
2023-02-06T15:31:01.187Z,2.00
2023-02-06T15:33:34.455Z,1.88
2023-02-06T15:36:03.501Z,2.30
2023-02-06T15:38:33.733Z,1.95
2023-02-06T15:41:04.379Z,2.50
2023-02-06T15:43:32.833Z,2.30
2023-02-06T15:46:02.358Z,1.67
2023-02-06T15:48:50.616Z,2.08
2023-02-06T15:51:29.272Z,3.42
2023-02-06T15:54:29.356Z,4.22
2023-02-06T15:57:04.773Z,3.88
2023-02-06T15:59:36.395Z,2.53
2023-02-06T16:02:04.321Z,2.85
2023-02-06T16:04:40.516Z,3.00
2023-02-06T16:07:16.406Z,4.72
2023-02-06T16:09:51.285Z,3.25
2023-02-06T16:12:18.375Z,2.03
2023-02-06T16:14:55.935Z,1.52
2023-02-06T16:17:26.723Z,1.98
2023-02-06T16:20:02.232Z,2.28
2023-02-06T16:22:38.359Z,1.63
2023-02-06T16:25:20.430Z,1.42
2023-02-06T16:27:48.610Z,1.58
2023-02-06T16:30:33.513Z,3.08
2023-02-06T16:33:11.059Z,1.95
2023-02-06T16:35:37.926Z,4.65
2023-02-06T16:38:04.622Z,2.03
2023-02-06T16:40:31.334Z,2.08
2023-02-06T16:42:58.211Z,1.80
2023-02-06T16:45:26.571Z,2.63
2023-02-06T16:47:54.851Z,3.58
2023-02-06T16:50:22.272Z,3.15
2023-02-06T16:52:53.476Z,1.95
2023-02-06T16:55:23.460Z,2.38
2023-02-06T16:57:53.629Z,1.70
2023-02-06T17:00:23.337Z,2.08
2023-02-06T17:02:52.097Z,2.25
2023-02-06T17:05:21.100Z,3.20
2023-02-06T17:07:49.692Z,2.78
2023-02-06T17:10:19.691Z,3.28
2023-02-06T17:12:46.958Z,4.97
2023-02-06T17:15:15.197Z,2.75
2023-02-06T17:17:42.185Z,3.67
2023-02-06T17:20:29.811Z,2.85
2023-02-06T17:22:56.499Z,4.20
2023-02-06T17:25:23.368Z,3.03
2023-02-06T17:27:51.249Z,3.10
2023-02-06T17:30:22.588Z,2.38
2023-02-06T17:32:49.451Z,2.60
2023-02-06T17:35:16.975Z,6.25
2023-02-06T17:37:44.046Z,5.20
2023-02-06T17:40:21.113Z,3.47
2023-02-06T17:42:48.067Z,2.58
2023-02-06T17:45:15.581Z,3.25
2023-02-06T17:47:44.884Z,3.42
2023-02-06T17:50:15.885Z,3.83
2023-02-06T17:52:42.574Z,5.00
2023-02-06T17:55:10.138Z,3.90
2023-02-06T17:57:38.366Z,4.85
2023-02-06T18:00:09.123Z,4.10
2023-02-06T18:02:36.817Z,5.47
2023-02-06T18:05:04.549Z,6.88
2023-02-06T18:07:31.798Z,5.40
2023-02-06T18:09:58.621Z,7.63
2023-02-06T18:12:25.505Z,6.45
2023-02-06T18:14:52.244Z,9.73
2023-02-06T18:17:19.782Z,14.43
2023-02-06T18:19:48.352Z,10.40
2023-02-06T18:22:20.057Z,7.15
2023-02-06T18:24:48.093Z,6.03
2023-02-06T18:27:14.992Z,5.55
2023-02-06T18:29:49.830Z,8.77
2023-02-06T18:32:18.238Z,7.63
2023-02-06T18:34:46.716Z,7.30
2023-02-06T18:37:13.743Z,4.75
2023-02-06T18:39:40.506Z,5.20
2023-02-06T18:42:25.699Z,5.93
2023-02-06T18:44:52.445Z,5.95
2023-02-06T18:47:19.835Z,5.85
2023-02-06T18:49:46.893Z,7.53
2023-02-06T18:52:13.831Z,7.32
2023-02-06T18:54:40.530Z,6.75
2023-02-06T18:57:07.359Z,6.88
2023-02-06T18:59:34.912Z,8.82
2023-02-06T19:02:02.353Z,9.88
2023-02-06T19:04:29.221Z,8.75
2023-02-06T19:06:56.134Z,9.27
2023-02-06T19:09:22.961Z,9.07
2023-02-06T19:11:49.913Z,10.13
2023-02-06T19:14:18.535Z,11.18
2023-02-06T19:16:47.479Z,10.18
2023-02-06T19:19:14.319Z,9.68
2023-02-06T19:21:41.219Z,10.70
2023-02-06T19:24:08.425Z,9.13
2023-02-06T19:26:35.161Z,13.25
2023-02-06T19:29:02.138Z,17.98
2023-02-06T19:31:28.956Z,17.75
2023-02-06T19:33:58.610Z,20.05
2023-02-06T19:36:27.553Z,16.63
2023-02-06T19:38:59.874Z,13.57
2023-02-06T19:43:56.035Z,12.18
2023-02-06T19:46:26.478Z,13.50
2023-02-06T19:48:54.361Z,17.52
2023-02-06T19:51:29.588Z,14.23
2023-02-06T19:53:58.086Z,10.30
2023-02-06T19:56:31.026Z,11.35
2023-02-06T19:59:00.272Z,16.00
2023-02-06T20:01:29.794Z,18.30
2023-02-06T20:03:58.315Z,11.38
2023-02-06T20:06:26.132Z,10.27
2023-02-06T20:08:52.849Z,8.70
2023-02-06T20:11:21.591Z,11.73
2023-02-06T20:13:52.107Z,8.65
2023-02-06T20:16:24.658Z,12.35
2023-02-06T20:18:51.597Z,12.38
2023-02-06T20:21:32.306Z,14.35
2023-02-06T20:24:01.550Z,10.95
2023-02-06T20:26:33.116Z,12.55
2023-02-06T20:29:00.255Z,12.40
2023-02-06T20:31:27.626Z,10.70
2023-02-06T20:33:54.757Z,10.50
2023-02-06T20:36:24.302Z,11.80
2023-02-06T20:38:56.393Z,13.15
2023-02-06T20:41:26.267Z,11.82
2023-02-06T20:43:53.549Z,10.38
2023-02-06T20:46:21.585Z,10.18
2023-02-06T20:48:58.457Z,10.85
2023-02-06T20:51:25.954Z,10.75
2023-02-06T20:53:52.909Z,12.27
2023-02-06T20:56:21.106Z,12.23
2023-02-06T20:58:51.138Z,11.57
2023-02-06T21:01:22.285Z,10.00
2023-02-06T21:03:50.267Z,9.65
2023-02-06T21:06:17.118Z,10.48
2023-02-06T21:08:50.339Z,9.15
2023-02-06T21:11:17.870Z,10.75
2023-02-06T21:13:44.819Z,10.52
2023-02-06T21:16:13.571Z,12.60
2023-02-06T21:18:42.739Z,11.73
2023-02-06T21:21:12.623Z,12.05
2023-02-06T21:23:40.728Z,11.70
2023-02-06T21:26:11.013Z,15.65
2023-02-06T21:28:39.297Z,12.40
2023-02-06T21:31:09.770Z,13.48
2023-02-06T21:33:36.866Z,17.48
2023-02-06T21:36:07.004Z,14.48
2023-02-06T21:38:35.461Z,15.38
2023-02-06T21:41:10.711Z,13.68
2023-02-06T21:43:37.633Z,12.38
2023-02-06T21:46:05.116Z,13.43
2023-02-06T21:48:35.356Z,13.07
2023-02-06T21:51:14.500Z,11.05
2023-02-06T21:53:42.369Z,12.27
2023-02-06T21:56:14.712Z,12.45
2023-02-06T22:01:09.143Z,11.85
2023-02-06T22:03:36.241Z,11.40
2023-02-06T22:06:11.695Z,13.48
2023-02-06T22:08:40.551Z,12.32
2023-02-06T22:11:25.438Z,16.10
2023-02-06T22:13:53.290Z,15.25
2023-02-06T22:16:22.919Z,14.85
2023-02-06T22:18:50.897Z,16.48
2023-02-06T22:21:20.465Z,19.55
2023-02-06T22:23:49.712Z,16.00
2023-02-06T22:26:23.192Z,13.88
2023-02-06T22:28:51.879Z,14.10
2023-02-06T22:31:22.740Z,14.10
2023-02-06T22:33:50.130Z,14.82
2023-02-06T22:36:22.838Z,12.95
2023-02-06T22:38:54.860Z,12.93
2023-02-06T22:41:21.724Z,12.25
2023-02-06T22:43:50.299Z,12.65
2023-02-06T22:46:20.242Z,11.85
2023-02-06T22:48:47.271Z,8.65
2023-02-06T22:51:14.160Z,6.13
2023-02-06T22:53:41.087Z,6.05
2023-02-06T22:56:29.847Z,6.88
2023-02-06T22:59:21.729Z,4.30
2023-02-06T23:01:53.108Z,5.97
2023-02-06T23:04:25.954Z,5.43
2023-02-06T23:06:53.640Z,3.70
2023-02-06T23:09:27.257Z,5.25
2023-02-06T23:11:54.945Z,3.35
2023-02-06T23:14:21.714Z,2.97
2023-02-06T23:16:48.699Z,3.25
2023-02-06T23:19:16.084Z,3.90
2023-02-06T23:21:44.406Z,4.07
2023-02-06T23:24:11.981Z,2.90
2023-02-06T23:26:42.148Z,3.03
2023-02-06T23:29:15.955Z,2.75
2023-02-06T23:31:43.623Z,2.95
2023-02-06T23:34:10.859Z,2.80
2023-02-06T23:36:37.933Z,2.60
2023-02-06T23:39:06.543Z,2.47
2023-02-06T23:41:33.656Z,2.63
2023-02-06T23:44:03.813Z,2.22
2023-02-06T23:46:33.109Z,3.78
2023-02-06T23:48:59.762Z,3.45
2023-02-06T23:51:27.056Z,4.85
2023-02-06T23:53:53.829Z,2.42
2023-02-06T23:56:26.871Z,3.13
2023-02-06T23:58:54.763Z,4.45
